sensor_id;sensor_type;location;lat;lon;timestamp;pressure;altitude;pressure_sealevel;temperature;humidity
75697;BME280;64312;44.738;20.612;2023-02-19T00:01:34;100721.53;;;9.16;60.46
75697;BME280;64312;44.738;20.612;2023-02-19T00:04:03;100736.59;;;9.25;60.98
75697;BME280;64312;44.738;20.612;2023-02-19T00:06:32;100735.72;;;9.33;60.22
75697;BME280;64312;44.738;20.612;2023-02-19T00:08:58;100740.94;;;9.34;60.14
75697;BME280;64312;44.738;20.612;2023-02-19T00:11:27;100751.84;;;9.33;60.48
75697;BME280;64312;44.738;20.612;2023-02-19T00:13:54;100741.28;;;9.31;60.22
75697;BME280;64312;44.738;20.612;2023-02-19T00:16:32;100743.97;;;9.31;60.50
75697;BME280;64312;44.738;20.612;2023-02-19T00:19:00;100751.00;;;9.32;60.31
75697;BME280;64312;44.738;20.612;2023-02-19T00:21:26;100741.94;;;9.33;59.96
75697;BME280;64312;44.738;20.612;2023-02-19T00:23:56;100746.47;;;9.33;59.93
75697;BME280;64312;44.738;20.612;2023-02-19T00:26:23;100734.56;;;9.27;60.29
75697;BME280;64312;44.738;20.612;2023-02-19T00:28:50;100753.38;;;9.27;60.00
75697;BME280;64312;44.738;20.612;2023-02-19T00:31:30;100758.44;;;9.22;60.72
75697;BME280;64312;44.738;20.612;2023-02-19T00:33:58;100758.94;;;9.17;60.79
75697;BME280;64312;44.738;20.612;2023-02-19T00:36:26;100765.00;;;9.11;60.31
75697;BME280;64312;44.738;20.612;2023-02-19T00:38:53;100765.69;;;9.05;60.43
75697;BME280;64312;44.738;20.612;2023-02-19T00:41:20;100771.56;;;9.01;60.88
75697;BME280;64312;44.738;20.612;2023-02-19T00:46:31;100779.81;;;8.91;60.85
75697;BME280;64312;44.738;20.612;2023-02-19T00:48:57;100774.94;;;8.86;61.32
75697;BME280;64312;44.738;20.612;2023-02-19T00:51:25;100783.34;;;8.83;61.55
75697;BME280;64312;44.738;20.612;2023-02-19T00:53:52;100779.97;;;8.81;61.07
75697;BME280;64312;44.738;20.612;2023-02-19T00:56:18;100782.84;;;8.80;61.67
75697;BME280;64312;44.738;20.612;2023-02-19T00:58:44;100781.34;;;8.77;61.40
75697;BME280;64312;44.738;20.612;2023-02-19T01:01:10;100775.47;;;8.74;61.68
75697;BME280;64312;44.738;20.612;2023-02-19T01:03:37;100783.03;;;8.70;62.09
75697;BME280;64312;44.738;20.612;2023-02-19T01:06:05;100781.34;;;8.69;61.83
75697;BME280;64312;44.738;20.612;2023-02-19T01:08:32;100773.81;;;8.64;62.63
75697;BME280;64312;44.738;20.612;2023-02-19T01:11:00;100779.19;;;8.64;62.12
75697;BME280;64312;44.738;20.612;2023-02-19T01:13:26;100773.94;;;8.63;62.36
75697;BME280;64312;44.738;20.612;2023-02-19T01:15:53;100769.78;;;8.60;62.71
75697;BME280;64312;44.738;20.612;2023-02-19T01:18:19;100777.81;;;8.60;63.32
75697;BME280;64312;44.738;20.612;2023-02-19T01:20:45;100769.94;;;8.59;63.05
75697;BME280;64312;44.738;20.612;2023-02-19T01:23:12;100770.97;;;8.58;63.37
75697;BME280;64312;44.738;20.612;2023-02-19T01:25:38;100769.28;;;8.57;62.72
75697;BME280;64312;44.738;20.612;2023-02-19T01:28:05;100764.75;;;8.57;62.63
75697;BME280;64312;44.738;20.612;2023-02-19T01:30:36;100761.06;;;8.58;63.82
75697;BME280;64312;44.738;20.612;2023-02-19T01:33:04;100764.41;;;8.60;63.70
75697;BME280;64312;44.738;20.612;2023-02-19T01:35:30;100767.75;;;8.62;63.72
75697;BME280;64312;44.738;20.612;2023-02-19T01:37:56;100759.69;;;8.62;63.88
75697;BME280;64312;44.738;20.612;2023-02-19T01:40:22;100762.38;;;8.62;63.96
75697;BME280;64312;44.738;20.612;2023-02-19T01:42:48;100769.44;;;8.63;64.22
75697;BME280;64312;44.738;20.612;2023-02-19T01:47:59;100757.84;;;8.63;64.01
75697;BME280;64312;44.738;20.612;2023-02-19T01:50:29;100770.44;;;8.62;63.38
75697;BME280;64312;44.738;20.612;2023-02-19T01:52:56;100766.06;;;8.61;63.74
75697;BME280;64312;44.738;20.612;2023-02-19T01:55:22;100763.38;;;8.61;64.21
75697;BME280;64312;44.738;20.612;2023-02-19T01:57:51;100755.69;;;8.58;63.98
75697;BME280;64312;44.738;20.612;2023-02-19T02:00:18;100763.22;;;8.63;64.19
75697;BME280;64312;44.738;20.612;2023-02-19T02:02:47;100762.53;;;8.69;64.28
75697;BME280;64312;44.738;20.612;2023-02-19T02:05:28;100758.88;;;8.70;63.93
75697;BME280;64312;44.738;20.612;2023-02-19T02:08:00;100760.38;;;8.73;64.13
75697;BME280;64312;44.738;20.612;2023-02-19T02:10:46;100763.91;;;8.73;63.61
75697;BME280;64312;44.738;20.612;2023-02-19T02:13:12;100763.06;;;8.73;63.78
75697;BME280;64312;44.738;20.612;2023-02-19T02:15:51;100759.03;;;8.77;64.58
75697;BME280;64312;44.738;20.612;2023-02-19T02:31:43;100759.63;;;9.11;63.15
75697;BME280;64312;44.738;20.612;2023-02-19T02:34:22;100759.13;;;9.16;63.54
75697;BME280;64312;44.738;20.612;2023-02-19T02:36:53;100761.78;;;9.24;63.18
75697;BME280;64312;44.738;20.612;2023-02-19T02:39:23;100747.53;;;9.23;62.63
75697;BME280;64312;44.738;20.612;2023-02-19T02:41:55;100754.03;;;9.37;62.37
75697;BME280;64312;44.738;20.612;2023-02-19T02:44:46;100741.25;;;9.39;61.64
75697;BME280;64312;44.738;20.612;2023-02-19T02:47:40;100758.53;;;9.45;62.24
75697;BME280;64312;44.738;20.612;2023-02-19T02:50:19;100755.00;;;9.44;61.72
75697;BME280;64312;44.738;20.612;2023-02-19T02:52:49;100754.47;;;9.49;62.38
75697;BME280;64312;44.738;20.612;2023-02-19T02:55:40;100753.97;;;9.54;61.99
75697;BME280;64312;44.738;20.612;2023-02-19T02:58:09;100755.28;;;9.58;61.41
75697;BME280;64312;44.738;20.612;2023-02-19T03:00:37;100759.31;;;9.62;61.83
75697;BME280;64312;44.738;20.612;2023-02-19T03:03:25;100749.03;;;9.65;60.94
75697;BME280;64312;44.738;20.612;2023-02-19T03:05:57;100751.56;;;9.67;61.14
75697;BME280;64312;44.738;20.612;2023-02-19T03:08:52;100748.16;;;9.73;61.08
75697;BME280;64312;44.738;20.612;2023-02-19T03:11:21;100747.34;;;9.72;60.91
75697;BME280;64312;44.738;20.612;2023-02-19T03:14:17;100744.28;;;9.75;60.55
75697;BME280;64312;44.738;20.612;2023-02-19T03:17:19;100737.56;;;9.71;60.74
75697;BME280;64312;44.738;20.612;2023-02-19T03:20:09;100739.41;;;9.71;60.11
75697;BME280;64312;44.738;20.612;2023-02-19T03:22:37;100743.13;;;9.70;60.26
75697;BME280;64312;44.738;20.612;2023-02-19T03:25:08;100746.00;;;9.68;60.26
75697;BME280;64312;44.738;20.612;2023-02-19T03:27:56;100743.00;;;9.63;60.04
75697;BME280;64312;44.738;20.612;2023-02-19T03:30:25;100737.63;;;9.63;60.34
75697;BME280;64312;44.738;20.612;2023-02-19T03:33:23;100737.97;;;9.60;59.98
75697;BME280;64312;44.738;20.612;2023-02-19T03:36:09;100738.31;;;9.57;60.16
75697;BME280;64312;44.738;20.612;2023-02-19T03:38:51;100726.91;;;9.55;60.66
75697;BME280;64312;44.738;20.612;2023-02-19T03:44:11;100748.09;;;9.50;60.43
75697;BME280;64312;44.738;20.612;2023-02-19T03:52:19;100760.50;;;9.51;59.87
75697;BME280;64312;44.738;20.612;2023-02-19T03:55:11;100748.47;;;9.47;59.91
75697;BME280;64312;44.738;20.612;2023-02-19T03:57:50;100753.84;;;9.47;60.11
75697;BME280;64312;44.738;20.612;2023-02-19T04:03:01;100753.31;;;9.43;59.85
75697;BME280;64312;44.738;20.612;2023-02-19T04:05:29;100747.97;;;9.43;59.53
75697;BME280;64312;44.738;20.612;2023-02-19T04:08:03;100742.59;;;9.43;60.41
75697;BME280;64312;44.738;20.612;2023-02-19T04:10:37;100747.78;;;9.45;59.89
75697;BME280;64312;44.738;20.612;2023-02-19T04:13:26;100749.44;;;9.46;58.90
75697;BME280;64312;44.738;20.612;2023-02-19T04:15:56;100744.06;;;9.46;59.16
75697;BME280;64312;44.738;20.612;2023-02-19T04:18:28;100744.06;;;9.46;59.49
75697;BME280;64312;44.738;20.612;2023-02-19T04:20:56;100754.66;;;9.47;59.36
75697;BME280;64312;44.738;20.612;2023-02-19T04:23:25;100750.13;;;9.48;59.20
75697;BME280;64312;44.738;20.612;2023-02-19T04:25:57;100753.47;;;9.50;59.17
75697;BME280;64312;44.738;20.612;2023-02-19T04:28:24;100750.78;;;9.50;59.14
75697;BME280;64312;44.738;20.612;2023-02-19T04:30:50;100742.06;;;9.48;59.38
75697;BME280;64312;44.738;20.612;2023-02-19T04:33:15;100738.19;;;9.50;58.89
75697;BME280;64312;44.738;20.612;2023-02-19T04:35:41;100746.06;;;9.52;59.19
75697;BME280;64312;44.738;20.612;2023-02-19T04:38:07;100749.13;;;9.49;59.31
75697;BME280;64312;44.738;20.612;2023-02-19T04:40:32;100741.94;;;9.41;59.34
75697;BME280;64312;44.738;20.612;2023-02-19T04:42:58;100727.34;;;9.36;59.41
75697;BME280;64312;44.738;20.612;2023-02-19T04:45:24;100747.31;;;9.33;60.06
75697;BME280;64312;44.738;20.612;2023-02-19T04:47:49;100756.56;;;9.31;59.85
75697;BME280;64312;44.738;20.612;2023-02-19T04:50:15;100753.38;;;9.27;60.23
75697;BME280;64312;44.738;20.612;2023-02-19T04:52:40;100744.66;;;9.25;59.85
75697;BME280;64312;44.738;20.612;2023-02-19T04:55:07;100757.22;;;9.33;59.60
75697;BME280;64312;44.738;20.612;2023-02-19T04:57:33;100752.53;;;9.35;60.04
75697;BME280;64312;44.738;20.612;2023-02-19T04:59:59;100752.53;;;9.35;60.30
75697;BME280;64312;44.738;20.612;2023-02-19T05:02:25;100749.16;;;9.33;59.56
75697;BME280;64312;44.738;20.612;2023-02-19T05:04:51;100751.50;;;9.36;60.18
75697;BME280;64312;44.738;20.612;2023-02-19T05:07:17;100740.25;;;9.32;60.03
75697;BME280;64312;44.738;20.612;2023-02-19T05:09:43;100751.19;;;9.31;60.21
75697;BME280;64312;44.738;20.612;2023-02-19T05:12:08;100733.56;;;9.28;59.94
75697;BME280;64312;44.738;20.612;2023-02-19T05:14:34;100737.44;;;9.26;60.29
75697;BME280;64312;44.738;20.612;2023-02-19T05:17:00;100735.09;;;9.22;60.36
75697;BME280;64312;44.738;20.612;2023-02-19T05:19:25;100732.94;;;9.18;60.60
75697;BME280;64312;44.738;20.612;2023-02-19T05:21:51;100738.81;;;9.13;60.76
75697;BME280;64312;44.738;20.612;2023-02-19T05:24:17;100732.28;;;9.08;60.63
75697;BME280;64312;44.738;20.612;2023-02-19T05:26:43;100728.44;;;9.02;61.11
75697;BME280;64312;44.738;20.612;2023-02-19T05:29:11;100735.16;;;8.98;60.77
75697;BME280;64312;44.738;20.612;2023-02-19T05:31:36;100725.09;;;8.92;60.66
75697;BME280;64312;44.738;20.612;2023-02-19T05:34:02;100729.00;;;8.89;60.84
75697;BME280;64312;44.738;20.612;2023-02-19T05:36:28;100721.06;;;8.88;60.85
75697;BME280;64312;44.738;20.612;2023-02-19T05:38:54;100717.56;;;8.87;61.34
75697;BME280;64312;44.738;20.612;2023-02-19T05:41:23;100707.19;;;8.84;61.06
75697;BME280;64312;44.738;20.612;2023-02-19T05:43:49;100706.50;;;8.90;61.20
75697;BME280;64312;44.738;20.612;2023-02-19T05:46:18;100706.31;;;8.92;60.30
75697;BME280;64312;44.738;20.612;2023-02-19T05:48:45;100720.56;;;8.92;61.16
75697;BME280;64312;44.738;20.612;2023-02-19T05:51:13;100721.75;;;8.90;60.17
75697;BME280;64312;44.738;20.612;2023-02-19T05:53:41;100715.22;;;8.84;60.64
75697;BME280;64312;44.738;20.612;2023-02-19T05:56:26;100709.69;;;8.86;60.94
75697;BME280;64312;44.738;20.612;2023-02-19T05:58:54;100706.16;;;8.85;60.58
75697;BME280;64312;44.738;20.612;2023-02-19T06:01:24;100715.88;;;8.86;60.48
75697;BME280;64312;44.738;20.612;2023-02-19T06:03:54;100726.44;;;8.88;60.58
75697;BME280;64312;44.738;20.612;2023-02-19T06:06:20;100727.28;;;8.88;60.62
75697;BME280;64312;44.738;20.612;2023-02-19T06:08:48;100729.81;;;8.90;59.98
75697;BME280;64312;44.738;20.612;2023-02-19T06:11:18;100717.41;;;8.89;61.28
75697;BME280;64312;44.738;20.612;2023-02-19T06:13:44;100731.00;;;8.95;60.52
75697;BME280;64312;44.738;20.612;2023-02-19T06:16:10;100735.34;;;8.97;60.96
75697;BME280;64312;44.738;20.612;2023-02-19T06:18:37;100748.25;;;9.01;60.93
75697;BME280;64312;44.738;20.612;2023-02-19T06:21:07;100748.25;;;9.01;60.39
75697;BME280;64312;44.738;20.612;2023-02-19T06:23:33;100751.63;;;9.03;60.41
75697;BME280;64312;44.738;20.612;2023-02-19T06:26:08;100740.88;;;9.03;60.42
75697;BME280;64312;44.738;20.612;2023-02-19T06:28:35;100748.06;;;9.11;60.22
75697;BME280;64312;44.738;20.612;2023-02-19T06:31:01;100739.81;;;9.12;60.58
75697;BME280;64312;44.738;20.612;2023-02-19T06:33:27;100753.06;;;9.22;59.85
75697;BME280;64312;44.738;20.612;2023-02-19T06:35:53;100740.94;;;9.26;60.01
75697;BME280;64312;44.738;20.612;2023-02-19T06:38:22;100723.16;;;9.25;59.89
75697;BME280;64312;44.738;20.612;2023-02-19T06:40:48;100725.66;;;9.35;59.38
75697;BME280;64312;44.738;20.612;2023-02-19T06:43:14;100724.97;;;9.41;59.72
75697;BME280;64312;44.738;20.612;2023-02-19T06:45:39;100722.75;;;9.44;59.36
75697;BME280;64312;44.738;20.612;2023-02-19T06:48:05;100720.56;;;9.48;59.61
75697;BME280;64312;44.738;20.612;2023-02-19T06:50:30;100733.78;;;9.58;59.19
75697;BME280;64312;44.738;20.612;2023-02-19T06:52:56;100731.22;;;9.64;59.38
75697;BME280;64312;44.738;20.612;2023-02-19T06:55:22;100732.88;;;9.73;58.99
75697;BME280;64312;44.738;20.612;2023-02-19T06:57:47;100728.94;;;9.84;58.32
75697;BME280;64312;44.738;20.612;2023-02-19T07:00:13;100725.00;;;9.95;57.60
75697;BME280;64312;44.738;20.612;2023-02-19T07:02:39;100717.72;;;10.03;57.64
75697;BME280;64312;44.738;20.612;2023-02-19T07:05:05;100718.97;;;10.16;57.86
75697;BME280;64312;44.738;20.612;2023-02-19T07:07:30;100715.06;;;10.26;57.31
75697;BME280;64312;44.738;20.612;2023-02-19T07:09:56;100720.69;;;10.40;56.63
75697;BME280;64312;44.738;20.612;2023-02-19T07:12:21;100719.75;;;10.47;55.79
75697;BME280;64312;44.738;20.612;2023-02-19T07:14:47;100715.63;;;10.60;55.91
75697;BME280;64312;44.738;20.612;2023-02-19T07:17:13;100711.81;;;10.69;55.31
75697;BME280;64312;44.738;20.612;2023-02-19T07:19:38;100720.50;;;10.79;55.32
75697;BME280;64312;44.738;20.612;2023-02-19T07:22:04;100712.31;;;10.87;55.01
75697;BME280;64312;44.738;20.612;2023-02-19T07:24:30;100722.28;;;11.01;54.58
75697;BME280;64312;44.738;20.612;2023-02-19T07:26:55;100728.03;;;11.13;53.37
75697;BME280;64312;44.738;20.612;2023-02-19T07:29:21;100729.25;;;11.25;53.20
75697;BME280;64312;44.738;20.612;2023-02-19T07:31:47;100719.66;;;11.37;52.99
75697;BME280;64312;44.738;20.612;2023-02-19T07:34:12;100715.13;;;11.53;53.19
75697;BME280;64312;44.738;20.612;2023-02-19T07:36:38;100705.03;;;11.61;53.11
75697;BME280;64312;44.738;20.612;2023-02-19T07:39:04;100713.09;;;11.76;51.47
75697;BME280;64312;44.738;20.612;2023-02-19T07:41:29;100714.69;;;11.85;51.18
75697;BME280;64312;44.738;20.612;2023-02-19T07:43:56;100700.44;;;11.91;50.84
75697;BME280;64312;44.738;20.612;2023-02-19T07:46:23;100705.25;;;11.96;50.88
75697;BME280;64312;44.738;20.612;2023-02-19T07:48:49;100720.47;;;12.04;50.04
75697;BME280;64312;44.738;20.612;2023-02-19T07:51:17;100714.91;;;12.05;50.10
75697;BME280;64312;44.738;20.612;2023-02-19T07:53:44;100722.41;;;12.10;50.08
75697;BME280;64312;44.738;20.612;2023-02-19T07:56:11;100710.41;;;12.12;50.04
75697;BME280;64312;44.738;20.612;2023-02-19T07:58:38;100708.56;;;12.13;50.28
75697;BME280;64312;44.738;20.612;2023-02-19T08:01:13;100719.22;;;12.21;50.29
75697;BME280;64312;44.738;20.612;2023-02-19T08:03:40;100712.00;;;12.28;49.93
75697;BME280;64312;44.738;20.612;2023-02-19T08:06:06;100712.72;;;12.37;50.67
75697;BME280;64312;44.738;20.612;2023-02-19T08:08:32;100707.75;;;12.40;50.31
75697;BME280;64312;44.738;20.612;2023-02-19T08:10:59;100716.19;;;12.52;49.67
75697;BME280;64312;44.738;20.612;2023-02-19T08:13:47;100710.56;;;12.54;49.45
75697;BME280;64312;44.738;20.612;2023-02-19T08:16:13;100704.78;;;12.57;49.26
75697;BME280;64312;44.738;20.612;2023-02-19T08:18:42;100701.25;;;12.56;48.44
75697;BME280;64312;44.738;20.612;2023-02-19T08:21:08;100704.97;;;12.55;49.42
75697;BME280;64312;44.738;20.612;2023-02-19T08:23:34;100696.88;;;12.55;49.30
75697;BME280;64312;44.738;20.612;2023-02-19T08:26:01;100688.19;;;12.60;49.02
75697;BME280;64312;44.738;20.612;2023-02-19T08:28:28;100685.31;;;12.68;48.97
75697;BME280;64312;44.738;20.612;2023-02-19T08:31:00;100673.59;;;12.82;49.53
75697;BME280;64312;44.738;20.612;2023-02-19T08:33:26;100682.63;;;12.96;48.80
75697;BME280;64312;44.738;20.612;2023-02-19T08:35:52;100679.97;;;13.02;48.22
75697;BME280;64312;44.738;20.612;2023-02-19T08:38:17;100671.25;;;13.07;47.68
75697;BME280;64312;44.738;20.612;2023-02-19T08:40:43;100664.41;;;13.11;48.05
75697;BME280;64312;44.738;20.612;2023-02-19T08:43:11;100672.97;;;13.15;47.46
75697;BME280;64312;44.738;20.612;2023-02-19T08:45:39;100675.84;;;13.13;47.58
75697;BME280;64312;44.738;20.612;2023-02-19T08:48:06;100666.91;;;13.13;47.19
75697;BME280;64312;44.738;20.612;2023-02-19T08:50:33;100661.50;;;13.13;46.78
75697;BME280;64312;44.738;20.612;2023-02-19T08:52:59;100651.13;;;13.16;46.81
75697;BME280;64312;44.738;20.612;2023-02-19T08:55:25;100664.91;;;13.21;46.93
75697;BME280;64312;44.738;20.612;2023-02-19T08:57:51;100656.00;;;13.27;47.49
75697;BME280;64312;44.738;20.612;2023-02-19T09:00:17;100650.63;;;13.34;46.77
75697;BME280;64312;44.738;20.612;2023-02-19T09:02:43;100638.56;;;13.37;47.06
75697;BME280;64312;44.738;20.612;2023-02-19T09:05:10;100643.59;;;13.46;46.44
75697;BME280;64312;44.738;20.612;2023-02-19T09:07:36;100634.03;;;13.50;47.04
75697;BME280;64312;44.738;20.612;2023-02-19T09:10:02;100644.88;;;13.57;46.88
75697;BME280;64312;44.738;20.612;2023-02-19T09:12:28;100633.44;;;13.62;46.30
75697;BME280;64312;44.738;20.612;2023-02-19T09:14:53;100631.78;;;13.67;46.26
75697;BME280;64312;44.738;20.612;2023-02-19T09:17:20;100631.38;;;13.70;46.00
75697;BME280;64312;44.738;20.612;2023-02-19T09:19:45;100623.91;;;13.72;45.96
75697;BME280;64312;44.738;20.612;2023-02-19T09:22:11;100629.09;;;13.74;46.25
75697;BME280;64312;44.738;20.612;2023-02-19T09:24:37;100623.69;;;13.74;46.23
75697;BME280;64312;44.738;20.612;2023-02-19T09:27:02;100629.09;;;13.74;46.03
75697;BME280;64312;44.738;20.612;2023-02-19T09:29:28;100637.00;;;13.75;46.14
75697;BME280;64312;44.738;20.612;2023-02-19T09:31:58;100636.63;;;13.78;46.15
75697;BME280;64312;44.738;20.612;2023-02-19T09:34:25;100627.88;;;13.90;48.54
75697;BME280;64312;44.738;20.612;2023-02-19T09:36:51;100628.72;;;14.03;45.95
75697;BME280;64312;44.738;20.612;2023-02-19T09:39:16;100627.06;;;13.96;45.87
75697;BME280;64312;44.738;20.612;2023-02-19T09:41:46;100626.66;;;13.99;45.46
75697;BME280;64312;44.738;20.612;2023-02-19T09:44:20;100630.59;;;13.96;44.98
75697;BME280;64312;44.738;20.612;2023-02-19T09:46:50;100624.34;;;14.09;52.22
75697;BME280;64312;44.738;20.612;2023-02-19T09:49:34;100626.03;;;14.23;46.98
75697;BME280;64312;44.738;20.612;2023-02-19T09:52:14;100626.66;;;14.25;44.69
75697;BME280;64312;44.738;20.612;2023-02-19T09:54:41;100631.66;;;14.28;44.53
75697;BME280;64312;44.738;20.612;2023-02-19T09:57:18;100629.78;;;14.22;44.23
75697;BME280;64312;44.738;20.612;2023-02-19T10:04:41;100620.81;;;14.15;44.47
75697;BME280;64312;44.738;20.612;2023-02-19T10:07:25;100637.50;;;14.19;44.69
75697;BME280;64312;44.738;20.612;2023-02-19T10:10:15;100642.06;;;14.18;44.20
75697;BME280;64312;44.738;20.612;2023-02-19T10:12:48;100627.28;;;14.21;44.56
75697;BME280;64312;44.738;20.612;2023-02-19T10:15:24;100627.28;;;14.21;43.64
75697;BME280;64312;44.738;20.612;2023-02-19T10:17:51;100610.63;;;14.17;43.99
75697;BME280;64312;44.738;20.612;2023-02-19T10:20:19;100619.38;;;14.13;43.88
75697;BME280;64312;44.738;20.612;2023-02-19T10:23:01;100619.16;;;14.07;43.67
75697;BME280;64312;44.738;20.612;2023-02-19T10:25:29;100606.03;;;14.04;43.78
75697;BME280;64312;44.738;20.612;2023-02-19T10:28:00;100603.34;;;14.04;43.69
75697;BME280;64312;44.738;20.612;2023-02-19T10:30:31;100600.81;;;14.09;44.46
75697;BME280;64312;44.738;20.612;2023-02-19T10:33:13;100597.28;;;14.16;43.88
75697;BME280;64312;44.738;20.612;2023-02-19T10:35:56;100589.97;;;14.23;44.29
75697;BME280;64312;44.738;20.612;2023-02-19T10:38:27;100592.06;;;14.27;43.98
75697;BME280;64312;44.738;20.612;2023-02-19T10:41:20;100592.50;;;14.38;44.47
75697;BME280;64312;44.738;20.612;2023-02-19T10:46:22;100582.47;;;14.65;43.74
75697;BME280;64312;44.738;20.612;2023-02-19T10:48:52;100583.06;;;14.73;43.75
75697;BME280;64312;44.738;20.612;2023-02-19T10:51:19;100586.16;;;14.83;43.71
75697;BME280;64312;44.738;20.612;2023-02-19T10:54:01;100568.84;;;14.91;43.19
75697;BME280;64312;44.738;20.612;2023-02-19T10:56:28;100563.97;;;15.06;43.51
75697;BME280;64312;44.738;20.612;2023-02-19T10:59:14;100562.91;;;15.14;42.49
75697;BME280;64312;44.738;20.612;2023-02-19T11:02:01;100562.88;;;15.21;41.68
75697;BME280;64312;44.738;20.612;2023-02-19T11:04:29;100550.16;;;15.21;42.17
75697;BME280;64312;44.738;20.612;2023-02-19T11:07:07;100559.50;;;15.25;41.70
75697;BME280;64312;44.738;20.612;2023-02-19T11:09:38;100552.81;;;15.28;42.02
75697;BME280;64312;44.738;20.612;2023-02-19T11:12:05;100557.81;;;15.31;41.18
75697;BME280;64312;44.738;20.612;2023-02-19T11:14:33;100550.69;;;15.36;42.08
75697;BME280;64312;44.738;20.612;2023-02-19T11:17:01;100565.44;;;15.47;41.76
75697;BME280;64312;44.738;20.612;2023-02-19T11:24:53;100559.75;;;15.62;41.46
75697;BME280;64312;44.738;20.612;2023-02-19T11:27:23;100529.66;;;15.63;41.95
75697;BME280;64312;44.738;20.612;2023-02-19T11:29:49;100547.56;;;15.71;41.28
75697;BME280;64312;44.738;20.612;2023-02-19T11:32:30;100540.28;;;15.72;41.81
75697;BME280;64312;44.738;20.612;2023-02-19T11:35:17;100530.34;;;15.84;41.44
75697;BME280;64312;44.738;20.612;2023-02-19T11:38:10;100525.41;;;15.99;40.74
75697;BME280;64312;44.738;20.612;2023-02-19T11:41:07;100523.00;;;16.09;40.18
75697;BME280;64312;44.738;20.612;2023-02-19T11:47:19;100512.81;;;16.30;38.22
75697;BME280;64312;44.738;20.612;2023-02-19T11:52:41;100536.00;;;16.50;37.63
75697;BME280;64312;44.738;20.612;2023-02-19T12:01:09;100514.25;;;16.69;37.73
75697;BME280;64312;44.738;20.612;2023-02-19T12:06:45;100507.97;;;16.87;36.01
75697;BME280;64312;44.738;20.612;2023-02-19T12:09:31;100491.22;;;16.90;35.87
75697;BME280;64312;44.738;20.612;2023-02-19T12:20:33;100491.75;;;16.43;37.17
75697;BME280;64312;44.738;20.612;2023-02-19T12:25:53;100481.41;;;16.34;37.10
75697;BME280;64312;44.738;20.612;2023-02-19T12:39:46;100470.22;;;16.05;38.68
75697;BME280;64312;44.738;20.612;2023-02-19T12:42:45;100467.94;;;16.02;38.56
75697;BME280;64312;44.738;20.612;2023-02-19T12:45:21;100453.91;;;16.05;38.60
75697;BME280;64312;44.738;20.612;2023-02-19T12:48:14;100446.53;;;16.12;39.38
75697;BME280;64312;44.738;20.612;2023-02-19T12:50:44;100439.56;;;16.16;38.72
75697;BME280;64312;44.738;20.612;2023-02-19T12:54:09;100441.25;;;16.17;39.09
75697;BME280;64312;44.738;20.612;2023-02-19T12:56:14;100435.19;;;16.15;38.35
75697;BME280;64312;44.738;20.612;2023-02-19T12:58:55;100453.78;;;16.18;39.09
75697;BME280;64312;44.738;20.612;2023-02-19T13:01:33;100431.75;;;16.27;39.16
75697;BME280;64312;44.738;20.612;2023-02-19T13:06:41;100431.81;;;16.57;38.72
75697;BME280;64312;44.738;20.612;2023-02-19T13:09:22;100440.88;;;16.50;38.75
75697;BME280;64312;44.738;20.612;2023-02-19T13:11:55;100424.66;;;16.44;38.32
75697;BME280;64312;44.738;20.612;2023-02-19T13:14:31;100419.75;;;16.34;38.73
75697;BME280;64312;44.738;20.612;2023-02-19T13:17:33;100428.66;;;16.23;39.02
75697;BME280;64312;44.738;20.612;2023-02-19T13:20:13;100416.44;;;16.14;39.62
75697;BME280;64312;44.738;20.612;2023-02-19T13:25:50;100415.50;;;15.83;39.76
75697;BME280;64312;44.738;20.612;2023-02-19T13:31:55;100421.34;;;15.62;39.88
75697;BME280;64312;44.738;20.612;2023-02-19T13:36:39;100422.66;;;15.53;40.74
75697;BME280;64312;44.738;20.612;2023-02-19T13:39:06;100430.97;;;15.51;40.86
75697;BME280;64312;44.738;20.612;2023-02-19T13:41:51;100424.72;;;15.51;40.46
75697;BME280;64312;44.738;20.612;2023-02-19T13:44:19;100422.66;;;15.53;40.91
75697;BME280;64312;44.738;20.612;2023-02-19T13:46:47;100419.94;;;15.53;40.29
75697;BME280;64312;44.738;20.612;2023-02-19T13:52:47;100417.81;;;15.55;39.90
75697;BME280;64312;44.738;20.612;2023-02-19T13:54:48;100423.63;;;15.58;40.17
75697;BME280;64312;44.738;20.612;2023-02-19T13:59:43;100420.38;;;15.75;40.25
75697;BME280;64312;44.738;20.612;2023-02-19T14:14:44;100407.06;;;15.91;40.57
75697;BME280;64312;44.738;20.612;2023-02-19T14:25:35;100427.81;;;15.86;40.24
75697;BME280;64312;44.738;20.612;2023-02-19T14:30:33;100425.22;;;15.73;40.71
75697;BME280;64312;44.738;20.612;2023-02-19T14:33:00;100426.47;;;15.70;40.99
75697;BME280;64312;44.738;20.612;2023-02-19T14:35:37;100414.03;;;15.62;41.10
75697;BME280;64312;44.738;20.612;2023-02-19T14:38:04;100413.78;;;15.64;41.05
75697;BME280;64312;44.738;20.612;2023-02-19T14:40:35;100416.31;;;15.65;41.23
75697;BME280;64312;44.738;20.612;2023-02-19T14:43:04;100425.91;;;15.61;41.50
75697;BME280;64312;44.738;20.612;2023-02-19T14:45:37;100427.78;;;15.61;41.31
75697;BME280;64312;44.738;20.612;2023-02-19T14:48:16;100432.00;;;15.57;41.18
75697;BME280;64312;44.738;20.612;2023-02-19T14:50:46;100436.81;;;15.55;41.27
75697;BME280;64312;44.738;20.612;2023-02-19T14:53:14;100437.69;;;15.49;41.00
75697;BME280;64312;44.738;20.612;2023-02-19T14:55:41;100436.09;;;15.41;41.68
75697;BME280;64312;44.738;20.612;2023-02-19T14:58:12;100435.69;;;15.37;41.60
75697;BME280;64312;44.738;20.612;2023-02-19T15:00:41;100442.00;;;15.31;41.65
75697;BME280;64312;44.738;20.612;2023-02-19T15:06:12;100444.19;;;15.16;41.92
75697;BME280;64312;44.738;20.612;2023-02-19T15:08:44;100441.91;;;15.13;42.07